sensor_id;sensor_type;location;lat;lon;timestamp;P1;durP1;ratioP1;P2;durP2;ratioP2
5171;SDS011;2605;49.770;9.868;2023-07-29T00:00:44;11.90;;;10.80;;
5171;SDS011;2605;49.770;9.868;2023-07-29T00:03:10;19.00;;;10.77;;
5171;SDS011;2605;49.770;9.868;2023-07-29T00:05:39;17.03;;;11.00;;
5171;SDS011;2605;49.770;9.868;2023-07-29T00:08:05;16.97;;;11.77;;
5171;SDS011;2605;49.770;9.868;2023-07-29T00:10:37;12.47;;;11.17;;
5171;SDS011;2605;49.770;9.868;2023-07-29T00:13:04;13.10;;;11.53;;
5171;SDS011;2605;49.770;9.868;2023-07-29T00:15:30;18.93;;;12.10;;
5171;SDS011;2605;49.770;9.868;2023-07-29T00:17:55;16.07;;;11.93;;
5171;SDS011;2605;49.770;9.868;2023-07-29T00:20:21;13.67;;;12.37;;
5171;SDS011;2605;49.770;9.868;2023-07-29T00:22:46;14.23;;;12.73;;
5171;SDS011;2605;49.770;9.868;2023-07-29T00:25:14;14.67;;;12.60;;
5171;SDS011;2605;49.770;9.868;2023-07-29T00:27:40;12.63;;;10.87;;
5171;SDS011;2605;49.770;9.868;2023-07-29T00:30:06;16.33;;;13.00;;
5171;SDS011;2605;49.770;9.868;2023-07-29T00:32:33;14.23;;;12.70;;
5171;SDS011;2605;49.770;9.868;2023-07-29T00:34:58;17.30;;;12.93;;
5171;SDS011;2605;49.770;9.868;2023-07-29T00:37:25;14.10;;;12.80;;
5171;SDS011;2605;49.770;9.868;2023-07-29T00:39:51;16.10;;;14.43;;
5171;SDS011;2605;49.770;9.868;2023-07-29T00:42:16;16.27;;;14.13;;
5171;SDS011;2605;49.770;9.868;2023-07-29T00:44:42;17.17;;;15.10;;
5171;SDS011;2605;49.770;9.868;2023-07-29T00:47:07;25.00;;;15.33;;
5171;SDS011;2605;49.770;9.868;2023-07-29T00:49:33;14.67;;;12.60;;
5171;SDS011;2605;49.770;9.868;2023-07-29T00:51:59;19.00;;;13.50;;
5171;SDS011;2605;49.770;9.868;2023-07-29T00:54:24;18.50;;;14.83;;
5171;SDS011;2605;49.770;9.868;2023-07-29T00:56:50;13.40;;;11.63;;
5171;SDS011;2605;49.770;9.868;2023-07-29T00:59:16;14.77;;;11.33;;
5171;SDS011;2605;49.770;9.868;2023-07-29T01:01:41;17.17;;;14.93;;
5171;SDS011;2605;49.770;9.868;2023-07-29T01:04:07;18.00;;;15.17;;
5171;SDS011;2605;49.770;9.868;2023-07-29T01:06:34;16.07;;;11.70;;
5171;SDS011;2605;49.770;9.868;2023-07-29T01:09:16;13.20;;;11.60;;
5171;SDS011;2605;49.770;9.868;2023-07-29T01:11:52;14.33;;;11.53;;
5171;SDS011;2605;49.770;9.868;2023-07-29T01:14:29;16.37;;;11.43;;
5171;SDS011;2605;49.770;9.868;2023-07-29T01:17:03;12.07;;;10.87;;
5171;SDS011;2605;49.770;9.868;2023-07-29T01:22:20;9.93;;;8.93;;
5171;SDS011;2605;49.770;9.868;2023-07-29T01:24:48;11.80;;;9.77;;
5171;SDS011;2605;49.770;9.868;2023-07-29T01:27:14;10.10;;;9.10;;
5171;SDS011;2605;49.770;9.868;2023-07-29T01:29:39;10.67;;;9.57;;
5171;SDS011;2605;49.770;9.868;2023-07-29T01:32:07;10.60;;;9.00;;
5171;SDS011;2605;49.770;9.868;2023-07-29T01:34:41;8.93;;;8.13;;
5171;SDS011;2605;49.770;9.868;2023-07-29T01:37:11;8.77;;;7.80;;
5171;SDS011;2605;49.770;9.868;2023-07-29T01:39:45;9.27;;;8.37;;
5171;SDS011;2605;49.770;9.868;2023-07-29T01:42:12;17.57;;;8.80;;
5171;SDS011;2605;49.770;9.868;2023-07-29T01:44:38;8.93;;;7.47;;
5171;SDS011;2605;49.770;9.868;2023-07-29T01:47:04;8.30;;;7.00;;
5171;SDS011;2605;49.770;9.868;2023-07-29T01:49:30;8.43;;;6.97;;
5171;SDS011;2605;49.770;9.868;2023-07-29T01:51:55;7.10;;;6.37;;
5171;SDS011;2605;49.770;9.868;2023-07-29T01:54:21;8.23;;;6.47;;
5171;SDS011;2605;49.770;9.868;2023-07-29T01:56:46;7.07;;;6.47;;
5171;SDS011;2605;49.770;9.868;2023-07-29T01:59:12;7.27;;;6.57;;
5171;SDS011;2605;49.770;9.868;2023-07-29T02:01:39;9.20;;;7.00;;
5171;SDS011;2605;49.770;9.868;2023-07-29T02:04:04;9.80;;;7.60;;
5171;SDS011;2605;49.770;9.868;2023-07-29T02:06:29;12.63;;;8.00;;
5171;SDS011;2605;49.770;9.868;2023-07-29T02:08:55;7.73;;;5.87;;
5171;SDS011;2605;49.770;9.868;2023-07-29T02:11:20;8.30;;;6.73;;
5171;SDS011;2605;49.770;9.868;2023-07-29T02:13:52;6.03;;;5.53;;
5171;SDS011;2605;49.770;9.868;2023-07-29T02:16:18;7.43;;;6.63;;
5171;SDS011;2605;49.770;9.868;2023-07-29T02:18:43;6.50;;;5.87;;
5171;SDS011;2605;49.770;9.868;2023-07-29T02:21:09;6.37;;;5.80;;
5171;SDS011;2605;49.770;9.868;2023-07-29T02:23:34;6.37;;;5.77;;
5171;SDS011;2605;49.770;9.868;2023-07-29T02:26:00;7.93;;;5.00;;
5171;SDS011;2605;49.770;9.868;2023-07-29T02:28:25;5.97;;;5.47;;
5171;SDS011;2605;49.770;9.868;2023-07-29T02:31:08;4.60;;;4.20;;
5171;SDS011;2605;49.770;9.868;2023-07-29T02:33:40;5.33;;;4.40;;
5171;SDS011;2605;49.770;9.868;2023-07-29T02:36:06;4.70;;;4.30;;
5171;SDS011;2605;49.770;9.868;2023-07-29T02:38:31;4.13;;;3.70;;
5171;SDS011;2605;49.770;9.868;2023-07-29T02:40:57;3.87;;;3.57;;
5171;SDS011;2605;49.770;9.868;2023-07-29T02:43:28;3.70;;;3.40;;
5171;SDS011;2605;49.770;9.868;2023-07-29T02:45:53;3.20;;;3.00;;
5171;SDS011;2605;49.770;9.868;2023-07-29T02:48:22;3.80;;;3.50;;
5171;SDS011;2605;49.770;9.868;2023-07-29T02:50:47;3.33;;;3.03;;
5171;SDS011;2605;49.770;9.868;2023-07-29T02:53:13;3.40;;;3.10;;
5171;SDS011;2605;49.770;9.868;2023-07-29T02:55:42;4.47;;;3.57;;
5171;SDS011;2605;49.770;9.868;2023-07-29T02:58:07;4.00;;;3.23;;
5171;SDS011;2605;49.770;9.868;2023-07-29T03:00:33;4.40;;;3.43;;
5171;SDS011;2605;49.770;9.868;2023-07-29T03:02:59;2.50;;;2.30;;
5171;SDS011;2605;49.770;9.868;2023-07-29T03:05:26;2.80;;;2.60;;
5171;SDS011;2605;49.770;9.868;2023-07-29T03:07:52;3.00;;;2.70;;
5171;SDS011;2605;49.770;9.868;2023-07-29T03:10:18;2.83;;;2.53;;
5171;SDS011;2605;49.770;9.868;2023-07-29T03:12:43;2.80;;;2.60;;
5171;SDS011;2605;49.770;9.868;2023-07-29T03:15:09;3.23;;;2.97;;
5171;SDS011;2605;49.770;9.868;2023-07-29T03:17:35;2.17;;;2.07;;
5171;SDS011;2605;49.770;9.868;2023-07-29T03:20:03;2.90;;;2.70;;
5171;SDS011;2605;49.770;9.868;2023-07-29T03:22:29;2.23;;;2.03;;
5171;SDS011;2605;49.770;9.868;2023-07-29T03:24:55;6.50;;;2.70;;
5171;SDS011;2605;49.770;9.868;2023-07-29T03:27:21;4.03;;;2.90;;
5171;SDS011;2605;49.770;9.868;2023-07-29T03:29:46;2.07;;;1.97;;
5171;SDS011;2605;49.770;9.868;2023-07-29T03:32:12;2.30;;;2.10;;
5171;SDS011;2605;49.770;9.868;2023-07-29T03:34:38;3.10;;;2.80;;
5171;SDS011;2605;49.770;9.868;2023-07-29T03:37:05;2.77;;;2.30;;
5171;SDS011;2605;49.770;9.868;2023-07-29T03:39:30;2.43;;;2.33;;
5171;SDS011;2605;49.770;9.868;2023-07-29T03:41:56;4.47;;;2.47;;
5171;SDS011;2605;49.770;9.868;2023-07-29T03:44:22;2.70;;;2.50;;
5171;SDS011;2605;49.770;9.868;2023-07-29T03:46:47;2.60;;;2.40;;
5171;SDS011;2605;49.770;9.868;2023-07-29T03:49:13;2.03;;;1.93;;
5171;SDS011;2605;49.770;9.868;2023-07-29T03:51:38;2.63;;;2.43;;
5171;SDS011;2605;49.770;9.868;2023-07-29T03:54:04;2.23;;;2.13;;
5171;SDS011;2605;49.770;9.868;2023-07-29T03:56:29;3.10;;;1.97;;
5171;SDS011;2605;49.770;9.868;2023-07-29T03:59:01;4.90;;;2.13;;
5171;SDS011;2605;49.770;9.868;2023-07-29T04:01:28;2.50;;;2.30;;
5171;SDS011;2605;49.770;9.868;2023-07-29T04:03:54;3.40;;;2.30;;
5171;SDS011;2605;49.770;9.868;2023-07-29T04:06:19;3.17;;;2.40;;
5171;SDS011;2605;49.770;9.868;2023-07-29T04:08:45;2.73;;;2.53;;
5171;SDS011;2605;49.770;9.868;2023-07-29T04:11:11;2.87;;;2.40;;
5171;SDS011;2605;49.770;9.868;2023-07-29T04:13:36;2.90;;;2.70;;
5171;SDS011;2605;49.770;9.868;2023-07-29T04:16:02;3.40;;;2.50;;
5171;SDS011;2605;49.770;9.868;2023-07-29T04:18:29;2.43;;;2.23;;
5171;SDS011;2605;49.770;9.868;2023-07-29T04:20:54;2.80;;;2.60;;
5171;SDS011;2605;49.770;9.868;2023-07-29T04:23:20;2.20;;;2.10;;
5171;SDS011;2605;49.770;9.868;2023-07-29T04:25:48;2.23;;;1.90;;
5171;SDS011;2605;49.770;9.868;2023-07-29T04:28:15;2.67;;;2.47;;
5171;SDS011;2605;49.770;9.868;2023-07-29T04:30:40;3.03;;;2.30;;
5171;SDS011;2605;49.770;9.868;2023-07-29T04:33:06;3.57;;;2.20;;
5171;SDS011;2605;49.770;9.868;2023-07-29T04:35:32;2.37;;;2.20;;
5171;SDS011;2605;49.770;9.868;2023-07-29T04:37:57;2.20;;;2.00;;
5171;SDS011;2605;49.770;9.868;2023-07-29T04:40:23;2.10;;;2.00;;
5171;SDS011;2605;49.770;9.868;2023-07-29T04:42:48;2.90;;;2.20;;
5171;SDS011;2605;49.770;9.868;2023-07-29T04:45:14;2.63;;;2.20;;
5171;SDS011;2605;49.770;9.868;2023-07-29T04:47:41;2.53;;;2.37;;
5171;SDS011;2605;49.770;9.868;2023-07-29T04:50:06;2.80;;;2.00;;
5171;SDS011;2605;49.770;9.868;2023-07-29T04:52:32;2.87;;;2.40;;
5171;SDS011;2605;49.770;9.868;2023-07-29T04:54:58;3.33;;;3.13;;
5171;SDS011;2605;49.770;9.868;2023-07-29T04:57:23;2.70;;;2.43;;
5171;SDS011;2605;49.770;9.868;2023-07-29T04:59:49;2.30;;;2.20;;
5171;SDS011;2605;49.770;9.868;2023-07-29T05:02:14;2.40;;;2.30;;
5171;SDS011;2605;49.770;9.868;2023-07-29T05:04:40;2.87;;;2.00;;
5171;SDS011;2605;49.770;9.868;2023-07-29T05:07:05;2.67;;;2.57;;
5171;SDS011;2605;49.770;9.868;2023-07-29T05:09:31;2.90;;;2.70;;
5171;SDS011;2605;49.770;9.868;2023-07-29T05:11:59;2.90;;;2.70;;
5171;SDS011;2605;49.770;9.868;2023-07-29T05:14:25;2.73;;;2.60;;
5171;SDS011;2605;49.770;9.868;2023-07-29T05:16:51;2.57;;;2.37;;
5171;SDS011;2605;49.770;9.868;2023-07-29T05:19:16;2.17;;;1.97;;
5171;SDS011;2605;49.770;9.868;2023-07-29T05:21:42;1.83;;;1.73;;
5171;SDS011;2605;49.770;9.868;2023-07-29T05:24:07;2.93;;;2.10;;
5171;SDS011;2605;49.770;9.868;2023-07-29T05:26:33;2.00;;;1.90;;
5171;SDS011;2605;49.770;9.868;2023-07-29T05:28:58;2.70;;;2.10;;
5171;SDS011;2605;49.770;9.868;2023-07-29T05:31:24;2.43;;;2.07;;
5171;SDS011;2605;49.770;9.868;2023-07-29T05:33:49;2.40;;;2.20;;
5171;SDS011;2605;49.770;9.868;2023-07-29T05:36:15;2.67;;;2.47;;
5171;SDS011;2605;49.770;9.868;2023-07-29T05:38:40;2.30;;;2.20;;
5171;SDS011;2605;49.770;9.868;2023-07-29T05:41:06;1.70;;;1.60;;
5171;SDS011;2605;49.770;9.868;2023-07-29T05:43:32;2.50;;;2.30;;
5171;SDS011;2605;49.770;9.868;2023-07-29T05:45:57;2.60;;;2.00;;
5171;SDS011;2605;49.770;9.868;2023-07-29T05:48:23;2.23;;;2.13;;
5171;SDS011;2605;49.770;9.868;2023-07-29T05:50:48;2.27;;;2.07;;
5171;SDS011;2605;49.770;9.868;2023-07-29T05:53:14;3.90;;;2.50;;
5171;SDS011;2605;49.770;9.868;2023-07-29T05:55:39;1.77;;;1.67;;
5171;SDS011;2605;49.770;9.868;2023-07-29T05:58:05;5.90;;;1.77;;
5171;SDS011;2605;49.770;9.868;2023-07-29T06:00:30;5.53;;;2.00;;
5171;SDS011;2605;49.770;9.868;2023-07-29T06:02:56;8.80;;;2.00;;
5171;SDS011;2605;49.770;9.868;2023-07-29T06:05:22;1.90;;;1.80;;
5171;SDS011;2605;49.770;9.868;2023-07-29T06:07:47;2.37;;;1.90;;
5171;SDS011;2605;49.770;9.868;2023-07-29T06:10:14;3.63;;;1.83;;
5171;SDS011;2605;49.770;9.868;2023-07-29T06:12:43;1.80;;;1.70;;
5171;SDS011;2605;49.770;9.868;2023-07-29T06:15:10;5.80;;;1.63;;
5171;SDS011;2605;49.770;9.868;2023-07-29T06:17:35;2.00;;;1.70;;
5171;SDS011;2605;49.770;9.868;2023-07-29T06:20:01;2.33;;;2.13;;
5171;SDS011;2605;49.770;9.868;2023-07-29T06:22:27;2.23;;;2.13;;
5171;SDS011;2605;49.770;9.868;2023-07-29T06:24:53;1.87;;;1.77;;
5171;SDS011;2605;49.770;9.868;2023-07-29T06:27:18;2.03;;;1.70;;
5171;SDS011;2605;49.770;9.868;2023-07-29T06:29:44;2.13;;;1.93;;
5171;SDS011;2605;49.770;9.868;2023-07-29T06:32:09;2.53;;;2.00;;
5171;SDS011;2605;49.770;9.868;2023-07-29T06:34:35;2.10;;;1.90;;
5171;SDS011;2605;49.770;9.868;2023-07-29T06:37:00;2.50;;;2.10;;
5171;SDS011;2605;49.770;9.868;2023-07-29T06:39:26;4.70;;;2.20;;
5171;SDS011;2605;49.770;9.868;2023-07-29T06:41:51;2.23;;;2.13;;
5171;SDS011;2605;49.770;9.868;2023-07-29T06:44:17;2.30;;;2.10;;
5171;SDS011;2605;49.770;9.868;2023-07-29T06:46:42;1.90;;;1.80;;
5171;SDS011;2605;49.770;9.868;2023-07-29T06:49:08;1.90;;;1.80;;
5171;SDS011;2605;49.770;9.868;2023-07-29T06:51:33;2.40;;;2.20;;
5171;SDS011;2605;49.770;9.868;2023-07-29T06:54:00;2.17;;;2.07;;
5171;SDS011;2605;49.770;9.868;2023-07-29T06:56:26;4.40;;;2.43;;
5171;SDS011;2605;49.770;9.868;2023-07-29T06:58:52;2.60;;;1.93;;
5171;SDS011;2605;49.770;9.868;2023-07-29T07:01:17;2.70;;;2.37;;
5171;SDS011;2605;49.770;9.868;2023-07-29T07:03:43;2.60;;;2.10;;
5171;SDS011;2605;49.770;9.868;2023-07-29T07:06:08;3.03;;;2.60;;
5171;SDS011;2605;49.770;9.868;2023-07-29T07:08:34;2.80;;;2.07;;
5171;SDS011;2605;49.770;9.868;2023-07-29T07:10:59;2.13;;;1.93;;
5171;SDS011;2605;49.770;9.868;2023-07-29T07:13:25;4.67;;;2.23;;
5171;SDS011;2605;49.770;9.868;2023-07-29T07:15:50;3.50;;;2.23;;
5171;SDS011;2605;49.770;9.868;2023-07-29T07:18:18;1.97;;;1.83;;
5171;SDS011;2605;49.770;9.868;2023-07-29T07:20:47;2.57;;;2.37;;
5171;SDS011;2605;49.770;9.868;2023-07-29T07:23:14;2.47;;;1.70;;
5171;SDS011;2605;49.770;9.868;2023-07-29T07:25:40;1.77;;;1.67;;
5171;SDS011;2605;49.770;9.868;2023-07-29T07:28:07;2.30;;;2.10;;
5171;SDS011;2605;49.770;9.868;2023-07-29T07:30:33;1.83;;;1.73;;
5171;SDS011;2605;49.770;9.868;2023-07-29T07:32:58;1.40;;;1.30;;
5171;SDS011;2605;49.770;9.868;2023-07-29T07:35:24;1.43;;;1.33;;
5171;SDS011;2605;49.770;9.868;2023-07-29T07:37:49;1.50;;;1.40;;
5171;SDS011;2605;49.770;9.868;2023-07-29T07:40:15;2.17;;;1.53;;
5171;SDS011;2605;49.770;9.868;2023-07-29T07:42:43;1.50;;;1.40;;
5171;SDS011;2605;49.770;9.868;2023-07-29T07:45:09;1.63;;;1.23;;
5171;SDS011;2605;49.770;9.868;2023-07-29T07:47:34;1.47;;;1.30;;
5171;SDS011;2605;49.770;9.868;2023-07-29T07:50:00;2.07;;;1.73;;
5171;SDS011;2605;49.770;9.868;2023-07-29T07:52:28;1.77;;;1.60;;
5171;SDS011;2605;49.770;9.868;2023-07-29T07:54:54;1.30;;;1.20;;
5171;SDS011;2605;49.770;9.868;2023-07-29T07:57:20;1.10;;;1.10;;
5171;SDS011;2605;49.770;9.868;2023-07-29T07:59:46;3.33;;;1.30;;
5171;SDS011;2605;49.770;9.868;2023-07-29T08:02:11;1.20;;;1.10;;
5171;SDS011;2605;49.770;9.868;2023-07-29T08:04:40;1.60;;;1.50;;
5171;SDS011;2605;49.770;9.868;2023-07-29T08:07:05;1.20;;;1.10;;
5171;SDS011;2605;49.770;9.868;2023-07-29T08:09:31;1.10;;;1.00;;
5171;SDS011;2605;49.770;9.868;2023-07-29T08:11:56;2.93;;;1.00;;
5171;SDS011;2605;49.770;9.868;2023-07-29T08:14:22;1.30;;;1.03;;
5171;SDS011;2605;49.770;9.868;2023-07-29T08:16:47;0.97;;;0.97;;
5171;SDS011;2605;49.770;9.868;2023-07-29T08:19:13;1.47;;;1.37;;
5171;SDS011;2605;49.770;9.868;2023-07-29T08:21:38;1.20;;;1.10;;
5171;SDS011;2605;49.770;9.868;2023-07-29T08:24:04;1.43;;;1.10;;
5171;SDS011;2605;49.770;9.868;2023-07-29T08:26:31;1.30;;;1.20;;
5171;SDS011;2605;49.770;9.868;2023-07-29T08:28:57;2.40;;;1.63;;
5171;SDS011;2605;49.770;9.868;2023-07-29T08:31:22;0.80;;;0.80;;
5171;SDS011;2605;49.770;9.868;2023-07-29T08:33:48;0.97;;;0.97;;
5171;SDS011;2605;49.770;9.868;2023-07-29T08:36:13;1.20;;;1.20;;
5171;SDS011;2605;49.770;9.868;2023-07-29T08:38:39;1.60;;;1.50;;
5171;SDS011;2605;49.770;9.868;2023-07-29T08:41:06;4.13;;;1.50;;
5171;SDS011;2605;49.770;9.868;2023-07-29T08:43:48;2.10;;;1.67;;
5171;SDS011;2605;49.770;9.868;2023-07-29T08:46:24;1.63;;;1.53;;
5171;SDS011;2605;49.770;9.868;2023-07-29T08:48:51;3.00;;;1.73;;
5171;SDS011;2605;49.770;9.868;2023-07-29T08:51:17;2.23;;;2.00;;
5171;SDS011;2605;49.770;9.868;2023-07-29T08:53:42;2.07;;;1.90;;
5171;SDS011;2605;49.770;9.868;2023-07-29T08:56:08;1.77;;;1.60;;
5171;SDS011;2605;49.770;9.868;2023-07-29T08:58:34;2.57;;;2.37;;
5171;SDS011;2605;49.770;9.868;2023-07-29T09:01:00;2.07;;;1.90;;
5171;SDS011;2605;49.770;9.868;2023-07-29T09:03:26;1.83;;;1.73;;
5171;SDS011;2605;49.770;9.868;2023-07-29T09:05:51;1.60;;;1.50;;
5171;SDS011;2605;49.770;9.868;2023-07-29T09:08:18;1.73;;;1.63;;
5171;SDS011;2605;49.770;9.868;2023-07-29T09:10:44;1.10;;;1.00;;
5171;SDS011;2605;49.770;9.868;2023-07-29T09:13:10;1.30;;;1.20;;
5171;SDS011;2605;49.770;9.868;2023-07-29T09:15:36;1.40;;;1.10;;
5171;SDS011;2605;49.770;9.868;2023-07-29T09:18:12;2.63;;;1.60;;
5171;SDS011;2605;49.770;9.868;2023-07-29T09:20:40;1.43;;;1.10;;
5171;SDS011;2605;49.770;9.868;2023-07-29T09:23:07;0.90;;;0.90;;
5171;SDS011;2605;49.770;9.868;2023-07-29T09:25:36;0.90;;;0.90;;
5171;SDS011;2605;49.770;9.868;2023-07-29T09:28:07;1.93;;;1.20;;
5171;SDS011;2605;49.770;9.868;2023-07-29T09:30:37;1.33;;;1.23;;
5171;SDS011;2605;49.770;9.868;2023-07-29T09:33:04;1.07;;;1.00;;
5171;SDS011;2605;49.770;9.868;2023-07-29T09:35:30;0.87;;;0.80;;
5171;SDS011;2605;49.770;9.868;2023-07-29T09:37:58;2.17;;;1.00;;
5171;SDS011;2605;49.770;9.868;2023-07-29T09:40:23;1.00;;;1.00;;
5171;SDS011;2605;49.770;9.868;2023-07-29T09:42:53;1.07;;;0.90;;
5171;SDS011;2605;49.770;9.868;2023-07-29T09:45:20;0.83;;;0.83;;
5171;SDS011;2605;49.770;9.868;2023-07-29T09:47:50;1.10;;;0.90;;
5171;SDS011;2605;49.770;9.868;2023-07-29T09:50:16;1.77;;;1.30;;
5171;SDS011;2605;49.770;9.868;2023-07-29T09:52:43;1.10;;;0.93;;
5171;SDS011;2605;49.770;9.868;2023-07-29T09:55:12;0.90;;;0.90;;
5171;SDS011;2605;49.770;9.868;2023-07-29T09:57:39;1.00;;;1.00;;
5171;SDS011;2605;49.770;9.868;2023-07-29T10:00:05;1.30;;;0.90;;
5171;SDS011;2605;49.770;9.868;2023-07-29T10:02:35;1.87;;;1.40;;
5171;SDS011;2605;49.770;9.868;2023-07-29T10:05:05;1.00;;;1.00;;
5171;SDS011;2605;49.770;9.868;2023-07-29T10:07:31;1.00;;;1.00;;
5171;SDS011;2605;49.770;9.868;2023-07-29T10:09:59;0.90;;;0.90;;
5171;SDS011;2605;49.770;9.868;2023-07-29T10:12:27;1.50;;;1.40;;
5171;SDS011;2605;49.770;9.868;2023-07-29T10:14:55;1.50;;;1.40;;
5171;SDS011;2605;49.770;9.868;2023-07-29T10:17:24;3.93;;;1.50;;
5171;SDS011;2605;49.770;9.868;2023-07-29T10:19:51;2.00;;;1.47;;
5171;SDS011;2605;49.770;9.868;2023-07-29T10:22:17;1.93;;;1.83;;
5171;SDS011;2605;49.770;9.868;2023-07-29T10:24:46;1.93;;;1.83;;
5171;SDS011;2605;49.770;9.868;2023-07-29T10:27:13;2.27;;;2.03;;
5171;SDS011;2605;49.770;9.868;2023-07-29T10:29:44;2.43;;;2.33;;
5171;SDS011;2605;49.770;9.868;2023-07-29T10:32:11;2.50;;;2.10;;
5171;SDS011;2605;49.770;9.868;2023-07-29T10:34:37;2.60;;;2.50;;
5171;SDS011;2605;49.770;9.868;2023-07-29T10:37:03;4.60;;;2.47;;
5171;SDS011;2605;49.770;9.868;2023-07-29T10:39:37;5.13;;;1.70;;
5171;SDS011;2605;49.770;9.868;2023-07-29T10:42:16;3.23;;;2.20;;
5171;SDS011;2605;49.770;9.868;2023-07-29T10:47:13;2.10;;;2.00;;
5171;SDS011;2605;49.770;9.868;2023-07-29T10:49:40;4.70;;;2.40;;
5171;SDS011;2605;49.770;9.868;2023-07-29T10:52:06;2.47;;;2.30;;
5171;SDS011;2605;49.770;9.868;2023-07-29T10:54:41;3.13;;;2.17;;
5171;SDS011;2605;49.770;9.868;2023-07-29T10:57:07;2.10;;;2.00;;
5171;SDS011;2605;49.770;9.868;2023-07-29T10:59:37;2.73;;;2.63;;
5171;SDS011;2605;49.770;9.868;2023-07-29T11:02:11;2.30;;;2.10;;
5171;SDS011;2605;49.770;9.868;2023-07-29T11:04:46;1.90;;;1.80;;
5171;SDS011;2605;49.770;9.868;2023-07-29T11:15:03;1.93;;;1.83;;
5171;SDS011;2605;49.770;9.868;2023-07-29T11:17:38;2.13;;;2.03;;
5171;SDS011;2605;49.770;9.868;2023-07-29T11:20:31;2.00;;;1.80;;
5171;SDS011;2605;49.770;9.868;2023-07-29T11:22:59;2.00;;;1.90;;
5171;SDS011;2605;49.770;9.868;2023-07-29T11:25:27;1.97;;;1.87;;
5171;SDS011;2605;49.770;9.868;2023-07-29T11:27:54;1.93;;;1.80;;
5171;SDS011;2605;49.770;9.868;2023-07-29T11:30:22;1.70;;;1.60;;
5171;SDS011;2605;49.770;9.868;2023-07-29T11:32:54;2.00;;;1.90;;
5171;SDS011;2605;49.770;9.868;2023-07-29T11:35:20;1.70;;;1.60;;
5171;SDS011;2605;49.770;9.868;2023-07-29T11:37:47;1.70;;;1.60;;
5171;SDS011;2605;49.770;9.868;2023-07-29T11:40:17;2.17;;;2.03;;
5171;SDS011;2605;49.770;9.868;2023-07-29T11:42:44;2.03;;;1.67;;
5171;SDS011;2605;49.770;9.868;2023-07-29T11:45:10;1.60;;;1.50;;
5171;SDS011;2605;49.770;9.868;2023-07-29T11:47:37;2.00;;;1.90;;
5171;SDS011;2605;49.770;9.868;2023-07-29T11:50:03;1.80;;;1.70;;
5171;SDS011;2605;49.770;9.868;2023-07-29T11:52:34;2.17;;;1.90;;
5171;SDS011;2605;49.770;9.868;2023-07-29T11:55:01;2.10;;;2.00;;
5171;SDS011;2605;49.770;9.868;2023-07-29T11:57:28;1.53;;;1.43;;
5171;SDS011;2605;49.770;9.868;2023-07-29T12:00:01;6.87;;;2.13;;
5171;SDS011;2605;49.770;9.868;2023-07-29T12:02:28;1.80;;;1.70;;
5171;SDS011;2605;49.770;9.868;2023-07-29T12:04:54;2.20;;;2.00;;
5171;SDS011;2605;49.770;9.868;2023-07-29T12:07:22;2.00;;;1.90;;
5171;SDS011;2605;49.770;9.868;2023-07-29T12:09:47;2.10;;;2.00;;
5171;SDS011;2605;49.770;9.868;2023-07-29T12:12:15;2.50;;;2.30;;
5171;SDS011;2605;49.770;9.868;2023-07-29T12:14:43;2.27;;;2.17;;
5171;SDS011;2605;49.770;9.868;2023-07-29T12:17:11;1.50;;;1.40;;
5171;SDS011;2605;49.770;9.868;2023-07-29T12:19:37;1.37;;;1.30;;
5171;SDS011;2605;49.770;9.868;2023-07-29T12:22:04;2.50;;;2.30;;
5171;SDS011;2605;49.770;9.868;2023-07-29T12:24:31;6.53;;;4.80;;
5171;SDS011;2605;49.770;9.868;2023-07-29T12:26:58;2.53;;;2.33;;
5171;SDS011;2605;49.770;9.868;2023-07-29T12:29:23;2.50;;;2.40;;
5171;SDS011;2605;49.770;9.868;2023-07-29T12:31:53;2.70;;;2.50;;
5171;SDS011;2605;49.770;9.868;2023-07-29T12:34:31;4.57;;;1.93;;
5171;SDS011;2605;49.770;9.868;2023-07-29T12:36:58;2.53;;;2.43;;
5171;SDS011;2605;49.770;9.868;2023-07-29T12:41:51;2.77;;;2.57;;
5171;SDS011;2605;49.770;9.868;2023-07-29T12:44:18;2.00;;;1.90;;
5171;SDS011;2605;49.770;9.868;2023-07-29T12:46:43;1.90;;;1.80;;
5171;SDS011;2605;49.770;9.868;2023-07-29T12:49:09;2.33;;;2.23;;
5171;SDS011;2605;49.770;9.868;2023-07-29T12:51:35;2.40;;;2.30;;
5171;SDS011;2605;49.770;9.868;2023-07-29T12:54:02;2.67;;;2.47;;
5171;SDS011;2605;49.770;9.868;2023-07-29T12:56:28;2.63;;;2.50;;
5171;SDS011;2605;49.770;9.868;2023-07-29T12:58:56;2.13;;;2.00;;
5171;SDS011;2605;49.770;9.868;2023-07-29T13:01:22;2.47;;;2.30;;
5171;SDS011;2605;49.770;9.868;2023-07-29T13:03:48;2.30;;;2.20;;
5171;SDS011;2605;49.770;9.868;2023-07-29T13:06:14;2.47;;;2.33;;
5171;SDS011;2605;49.770;9.868;2023-07-29T13:08:40;4.50;;;3.97;;
5171;SDS011;2605;49.770;9.868;2023-07-29T13:11:06;2.60;;;2.40;;
5171;SDS011;2605;49.770;9.868;2023-07-29T13:13:32;2.80;;;2.20;;
5171;SDS011;2605;49.770;9.868;2023-07-29T13:15:58;2.50;;;2.30;;
5171;SDS011;2605;49.770;9.868;2023-07-29T13:18:23;2.50;;;2.30;;
5171;SDS011;2605;49.770;9.868;2023-07-29T13:20:49;2.67;;;2.53;;
5171;SDS011;2605;49.770;9.868;2023-07-29T13:23:15;2.37;;;2.17;;
5171;SDS011;2605;49.770;9.868;2023-07-29T13:25:41;2.30;;;2.10;;
5171;SDS011;2605;49.770;9.868;2023-07-29T13:28:08;2.97;;;1.87;;
5171;SDS011;2605;49.770;9.868;2023-07-29T13:30:35;1.50;;;1.40;;
5171;SDS011;2605;49.770;9.868;2023-07-29T13:33:00;1.93;;;1.83;;
5171;SDS011;2605;49.770;9.868;2023-07-29T13:35:26;1.70;;;1.60;;
5171;SDS011;2605;49.770;9.868;2023-07-29T13:37:52;3.40;;;2.00;;
5171;SDS011;2605;49.770;9.868;2023-07-29T13:40:17;4.70;;;1.80;;
5171;SDS011;2605;49.770;9.868;2023-07-29T13:42:45;2.03;;;1.87;;
5171;SDS011;2605;49.770;9.868;2023-07-29T13:45:11;1.60;;;1.50;;
5171;SDS011;2605;49.770;9.868;2023-07-29T13:47:36;1.80;;;1.70;;
5171;SDS011;2605;49.770;9.868;2023-07-29T13:50:02;1.87;;;1.77;;
5171;SDS011;2605;49.770;9.868;2023-07-29T13:52:28;1.90;;;1.80;;
5171;SDS011;2605;49.770;9.868;2023-07-29T13:54:54;2.20;;;2.00;;
5171;SDS011;2605;49.770;9.868;2023-07-29T13:57:19;2.87;;;1.87;;
5171;SDS011;2605;49.770;9.868;2023-07-29T13:59:45;1.83;;;1.73;;
5171;SDS011;2605;49.770;9.868;2023-07-29T14:02:10;2.03;;;1.77;;
5171;SDS011;2605;49.770;9.868;2023-07-29T14:04:36;2.33;;;2.20;;
5171;SDS011;2605;49.770;9.868;2023-07-29T14:07:01;2.00;;;1.90;;
5171;SDS011;2605;49.770;9.868;2023-07-29T14:09:27;2.40;;;2.20;;
5171;SDS011;2605;49.770;9.868;2023-07-29T14:11:56;2.03;;;1.93;;
5171;SDS011;2605;49.770;9.868;2023-07-29T14:14:21;2.30;;;2.10;;
5171;SDS011;2605;49.770;9.868;2023-07-29T14:16:47;1.87;;;1.77;;
5171;SDS011;2605;49.770;9.868;2023-07-29T14:19:12;3.50;;;1.87;;
5171;SDS011;2605;49.770;9.868;2023-07-29T14:21:38;2.17;;;2.07;;
5171;SDS011;2605;49.770;9.868;2023-07-29T14:24:03;1.90;;;1.80;;
5171;SDS011;2605;49.770;9.868;2023-07-29T14:26:30;1.90;;;1.70;;
5171;SDS011;2605;49.770;9.868;2023-07-29T14:28:55;1.90;;;1.80;;
5171;SDS011;2605;49.770;9.868;2023-07-29T14:31:21;1.97;;;1.63;;
5171;SDS011;2605;49.770;9.868;2023-07-29T14:33:47;2.27;;;2.17;;
5171;SDS011;2605;49.770;9.868;2023-07-29T14:36:14;2.03;;;1.93;;
5171;SDS011;2605;49.770;9.868;2023-07-29T14:38:40;2.87;;;1.60;;
5171;SDS011;2605;49.770;9.868;2023-07-29T14:41:05;1.80;;;1.70;;
5171;SDS011;2605;49.770;9.868;2023-07-29T14:43:31;2.60;;;2.40;;
5171;SDS011;2605;49.770;9.868;2023-07-29T14:45:56;2.03;;;1.93;;
5171;SDS011;2605;49.770;9.868;2023-07-29T14:48:22;2.40;;;2.30;;
5171;SDS011;2605;49.770;9.868;2023-07-29T14:50:48;2.43;;;2.23;;
5171;SDS011;2605;49.770;9.868;2023-07-29T14:53:14;2.63;;;2.43;;
5171;SDS011;2605;49.770;9.868;2023-07-29T14:55:39;2.00;;;1.90;;
5171;SDS011;2605;49.770;9.868;2023-07-29T14:58:05;2.67;;;2.57;;
5171;SDS011;2605;49.770;9.868;2023-07-29T15:00:30;5.63;;;1.90;;
5171;SDS011;2605;49.770;9.868;2023-07-29T15:02:56;1.93;;;1.83;;
5171;SDS011;2605;49.770;9.868;2023-07-29T15:05:24;1.93;;;1.83;;
5171;SDS011;2605;49.770;9.868;2023-07-29T15:07:49;4.33;;;2.00;;
5171;SDS011;2605;49.770;9.868;2023-07-29T15:10:16;1.83;;;1.73;;
5171;SDS011;2605;49.770;9.868;2023-07-29T15:12:42;1.97;;;1.87;;
5171;SDS011;2605;49.770;9.868;2023-07-29T15:15:08;2.10;;;2.00;;
5171;SDS011;2605;49.770;9.868;2023-07-29T15:17:34;2.50;;;2.30;;
5171;SDS011;2605;49.770;9.868;2023-07-29T15:20:00;2.47;;;2.37;;
5171;SDS011;2605;49.770;9.868;2023-07-29T15:22:26;2.60;;;2.50;;
5171;SDS011;2605;49.770;9.868;2023-07-29T15:24:52;2.60;;;2.50;;